X  Fermer Données météorologiques d'aviation de Metar     LFQQ Lille-Lesquin Airport
Température
12°C Température
11°C Point de rosée
94% Humidité



Vitesse
21 KM/H
13 MPH
6 M/S
11 KTS



300°
ONO
Conditions actuelles

Légère  Pluie, Brouillard Légère Pluie, Brouillard
Pression 1002.92 (hPa) - 29.62 (inHg)
Visibilité 2.5 (mile) - 4 (km)
Aéroport
Code de l'aéroport LFQQ

Emplacement: Lille-Lesquin Airport
Distance: 15 (km)

Metar:
LFQQ 261930Z AUTO 30011KT 4400 -RA BR BKN012/// BKN022/// BKN039/// ///CB 12/11 Q1003 TEMPO RA BKN008 BKN020CB

Temps: 26-09-2020 21:30 CEST